sensor_id;sensor_type;location;lat;lon;timestamp;temperature;humidity
43627;DHT22;29217;52.586;13.442;2022-07-26T00:01:42;19.80;99.90
43627;DHT22;29217;52.586;13.442;2022-07-26T00:04:08;19.70;99.90
43627;DHT22;29217;52.586;13.442;2022-07-26T00:06:33;19.70;99.90
43627;DHT22;29217;52.586;13.442;2022-07-26T00:08:59;19.70;99.90
43627;DHT22;29217;52.586;13.442;2022-07-26T00:11:25;19.70;99.90
43627;DHT22;29217;52.586;13.442;2022-07-26T00:13:51;19.70;99.90
43627;DHT22;29217;52.586;13.442;2022-07-26T00:16:17;19.70;99.90
43627;DHT22;29217;52.586;13.442;2022-07-26T00:18:43;19.70;99.90
43627;DHT22;29217;52.586;13.442;2022-07-26T00:21:09;19.70;99.90
43627;DHT22;29217;52.586;13.442;2022-07-26T00:23:34;19.50;99.90
43627;DHT22;29217;52.586;13.442;2022-07-26T00:26:00;19.60;99.90
43627;DHT22;29217;52.586;13.442;2022-07-26T00:28:26;19.60;99.90
43627;DHT22;29217;52.586;13.442;2022-07-26T00:30:51;19.70;99.90
43627;DHT22;29217;52.586;13.442;2022-07-26T00:33:17;19.70;99.90
43627;DHT22;29217;52.586;13.442;2022-07-26T00:35:42;19.70;99.90
43627;DHT22;29217;52.586;13.442;2022-07-26T00:38:08;19.70;99.90
43627;DHT22;29217;52.586;13.442;2022-07-26T00:40:34;19.70;99.90
43627;DHT22;29217;52.586;13.442;2022-07-26T00:42:59;19.70;99.90
43627;DHT22;29217;52.586;13.442;2022-07-26T00:45:25;19.80;99.90
43627;DHT22;29217;52.586;13.442;2022-07-26T00:47:51;19.70;99.90
43627;DHT22;29217;52.586;13.442;2022-07-26T00:50:18;19.60;99.90
43627;DHT22;29217;52.586;13.442;2022-07-26T00:52:46;19.60;99.90
43627;DHT22;29217;52.586;13.442;2022-07-26T00:55:13;19.60;99.90
43627;DHT22;29217;52.586;13.442;2022-07-26T00:57:39;19.70;99.90
43627;DHT22;29217;52.586;13.442;2022-07-26T01:00:12;19.60;99.90
43627;DHT22;29217;52.586;13.442;2022-07-26T01:02:39;19.60;99.90
43627;DHT22;29217;52.586;13.442;2022-07-26T01:05:05;19.60;99.90
43627;DHT22;29217;52.586;13.442;2022-07-26T01:07:31;19.60;99.90
43627;DHT22;29217;52.586;13.442;2022-07-26T01:09:56;19.50;99.90
43627;DHT22;29217;52.586;13.442;2022-07-26T01:12:22;19.50;99.90
43627;DHT22;29217;52.586;13.442;2022-07-26T01:14:48;19.60;99.90
43627;DHT22;29217;52.586;13.442;2022-07-26T01:17:14;19.50;99.90
43627;DHT22;29217;52.586;13.442;2022-07-26T01:19:41;19.50;99.90
43627;DHT22;29217;52.586;13.442;2022-07-26T01:22:07;19.50;99.90
43627;DHT22;29217;52.586;13.442;2022-07-26T01:24:32;19.50;99.90
43627;DHT22;29217;52.586;13.442;2022-07-26T01:26:58;19.60;99.90
43627;DHT22;29217;52.586;13.442;2022-07-26T01:29:24;19.50;99.90
43627;DHT22;29217;52.586;13.442;2022-07-26T01:31:50;19.60;99.90
43627;DHT22;29217;52.586;13.442;2022-07-26T01:34:17;19.60;99.90
43627;DHT22;29217;52.586;13.442;2022-07-26T01:36:42;19.50;99.90
43627;DHT22;29217;52.586;13.442;2022-07-26T01:39:08;19.60;99.90
43627;DHT22;29217;52.586;13.442;2022-07-26T01:41:34;19.60;99.90
43627;DHT22;29217;52.586;13.442;2022-07-26T01:44:00;19.60;99.90
43627;DHT22;29217;52.586;13.442;2022-07-26T01:46:26;19.60;99.90
43627;DHT22;29217;52.586;13.442;2022-07-26T01:48:52;19.60;99.90
43627;DHT22;29217;52.586;13.442;2022-07-26T01:51:17;19.60;99.90
43627;DHT22;29217;52.586;13.442;2022-07-26T01:53:43;19.70;99.90
43627;DHT22;29217;52.586;13.442;2022-07-26T01:56:12;19.60;99.90
43627;DHT22;29217;52.586;13.442;2022-07-26T01:58:39;19.60;99.90
43627;DHT22;29217;52.586;13.442;2022-07-26T02:01:05;19.60;99.90
43627;DHT22;29217;52.586;13.442;2022-07-26T02:03:30;19.60;99.90
43627;DHT22;29217;52.586;13.442;2022-07-26T02:05:56;19.60;99.90
43627;DHT22;29217;52.586;13.442;2022-07-26T02:08:21;19.60;99.90
43627;DHT22;29217;52.586;13.442;2022-07-26T02:10:47;19.50;99.90
43627;DHT22;29217;52.586;13.442;2022-07-26T02:13:29;19.40;99.90
43627;DHT22;29217;52.586;13.442;2022-07-26T02:15:56;19.30;99.90
43627;DHT22;29217;52.586;13.442;2022-07-26T02:18:26;19.30;99.90
43627;DHT22;29217;52.586;13.442;2022-07-26T02:20:52;19.40;99.90
43627;DHT22;29217;52.586;13.442;2022-07-26T02:23:17;19.30;99.90
43627;DHT22;29217;52.586;13.442;2022-07-26T02:25:43;19.30;99.90
43627;DHT22;29217;52.586;13.442;2022-07-26T02:28:08;19.40;99.90
43627;DHT22;29217;52.586;13.442;2022-07-26T02:30:34;19.40;99.90
43627;DHT22;29217;52.586;13.442;2022-07-26T02:32:59;19.40;99.90
43627;DHT22;29217;52.586;13.442;2022-07-26T02:35:25;19.40;99.90
43627;DHT22;29217;52.586;13.442;2022-07-26T02:37:51;19.40;99.90
43627;DHT22;29217;52.586;13.442;2022-07-26T02:40:17;19.40;99.90
43627;DHT22;29217;52.586;13.442;2022-07-26T02:42:42;19.40;99.90
43627;DHT22;29217;52.586;13.442;2022-07-26T02:45:08;19.40;99.90
43627;DHT22;29217;52.586;13.442;2022-07-26T02:47:34;19.30;99.90
43627;DHT22;29217;52.586;13.442;2022-07-26T02:50:00;19.20;99.90
43627;DHT22;29217;52.586;13.442;2022-07-26T02:52:25;19.30;99.90
43627;DHT22;29217;52.586;13.442;2022-07-26T02:54:51;19.20;99.90
43627;DHT22;29217;52.586;13.442;2022-07-26T02:57:16;19.20;99.90
43627;DHT22;29217;52.586;13.442;2022-07-26T02:59:42;19.20;99.90
43627;DHT22;29217;52.586;13.442;2022-07-26T03:02:07;19.20;99.90
43627;DHT22;29217;52.586;13.442;2022-07-26T03:04:33;19.10;99.90
43627;DHT22;29217;52.586;13.442;2022-07-26T03:06:58;19.10;99.90
43627;DHT22;29217;52.586;13.442;2022-07-26T03:09:24;19.10;99.90
43627;DHT22;29217;52.586;13.442;2022-07-26T03:11:50;19.20;99.90
43627;DHT22;29217;52.586;13.442;2022-07-26T03:14:15;19.10;99.90
43627;DHT22;29217;52.586;13.442;2022-07-26T03:16:41;19.10;99.90
43627;DHT22;29217;52.586;13.442;2022-07-26T03:19:06;19.10;99.90
43627;DHT22;29217;52.586;13.442;2022-07-26T03:21:32;19.10;99.90
43627;DHT22;29217;52.586;13.442;2022-07-26T03:23:57;19.00;99.90
43627;DHT22;29217;52.586;13.442;2022-07-26T03:26:23;19.00;99.90
43627;DHT22;29217;52.586;13.442;2022-07-26T03:28:48;19.00;99.90
43627;DHT22;29217;52.586;13.442;2022-07-26T03:31:14;18.90;99.90
43627;DHT22;29217;52.586;13.442;2022-07-26T03:33:40;18.90;99.90
43627;DHT22;29217;52.586;13.442;2022-07-26T03:36:05;18.90;99.90
43627;DHT22;29217;52.586;13.442;2022-07-26T03:38:47;18.90;99.90
43627;DHT22;29217;52.586;13.442;2022-07-26T03:41:12;18.80;99.90
43627;DHT22;29217;52.586;13.442;2022-07-26T03:43:38;18.80;99.90
43627;DHT22;29217;52.586;13.442;2022-07-26T03:46:03;18.90;99.90
43627;DHT22;29217;52.586;13.442;2022-07-26T03:48:30;18.80;99.90
43627;DHT22;29217;52.586;13.442;2022-07-26T03:50:55;18.80;99.90
43627;DHT22;29217;52.586;13.442;2022-07-26T03:53:21;18.80;99.90
43627;DHT22;29217;52.586;13.442;2022-07-26T03:55:46;18.80;99.90
43627;DHT22;29217;52.586;13.442;2022-07-26T03:58:30;18.80;99.90
43627;DHT22;29217;52.586;13.442;2022-07-26T04:00:56;18.90;99.90
43627;DHT22;29217;52.586;13.442;2022-07-26T04:03:21;18.80;99.90
43627;DHT22;29217;52.586;13.442;2022-07-26T04:05:47;18.80;99.90
43627;DHT22;29217;52.586;13.442;2022-07-26T04:08:12;18.80;99.90
43627;DHT22;29217;52.586;13.442;2022-07-26T04:10:38;18.70;99.90
43627;DHT22;29217;52.586;13.442;2022-07-26T04:13:03;18.70;99.90
43627;DHT22;29217;52.586;13.442;2022-07-26T04:15:29;18.60;99.90
43627;DHT22;29217;52.586;13.442;2022-07-26T04:17:54;18.60;99.90
43627;DHT22;29217;52.586;13.442;2022-07-26T04:20:20;18.60;99.90
43627;DHT22;29217;52.586;13.442;2022-07-26T04:22:45;18.60;99.90
43627;DHT22;29217;52.586;13.442;2022-07-26T04:25:11;18.70;99.90
43627;DHT22;29217;52.586;13.442;2022-07-26T04:27:37;18.60;99.90
43627;DHT22;29217;52.586;13.442;2022-07-26T04:30:03;18.60;99.90
43627;DHT22;29217;52.586;13.442;2022-07-26T04:32:29;18.60;99.90
43627;DHT22;29217;52.586;13.442;2022-07-26T04:34:55;18.60;99.90
43627;DHT22;29217;52.586;13.442;2022-07-26T04:37:20;18.60;99.90
43627;DHT22;29217;52.586;13.442;2022-07-26T04:39:46;18.60;99.90
43627;DHT22;29217;52.586;13.442;2022-07-26T04:42:11;18.60;99.90
43627;DHT22;29217;52.586;13.442;2022-07-26T04:44:37;18.60;99.90
43627;DHT22;29217;52.586;13.442;2022-07-26T04:47:03;18.60;99.90
43627;DHT22;29217;52.586;13.442;2022-07-26T04:49:28;18.60;99.90
43627;DHT22;29217;52.586;13.442;2022-07-26T04:51:54;18.70;99.90
43627;DHT22;29217;52.586;13.442;2022-07-26T04:54:20;18.70;99.90
43627;DHT22;29217;52.586;13.442;2022-07-26T04:56:47;18.70;99.90
43627;DHT22;29217;52.586;13.442;2022-07-26T04:59:13;18.70;99.90
43627;DHT22;29217;52.586;13.442;2022-07-26T05:01:38;18.70;99.90
43627;DHT22;29217;52.586;13.442;2022-07-26T05:04:04;18.70;99.90
43627;DHT22;29217;52.586;13.442;2022-07-26T05:06:30;18.80;99.90
43627;DHT22;29217;52.586;13.442;2022-07-26T05:08:57;18.80;99.90
43627;DHT22;29217;52.586;13.442;2022-07-26T05:11:22;18.90;99.90
43627;DHT22;29217;52.586;13.442;2022-07-26T05:13:48;18.90;99.90
43627;DHT22;29217;52.586;13.442;2022-07-26T05:16:13;18.90;99.90
43627;DHT22;29217;52.586;13.442;2022-07-26T05:18:39;18.80;99.90
43627;DHT22;29217;52.586;13.442;2022-07-26T05:21:05;18.90;99.90
43627;DHT22;29217;52.586;13.442;2022-07-26T05:23:30;18.90;99.90
43627;DHT22;29217;52.586;13.442;2022-07-26T05:25:56;18.90;99.90
43627;DHT22;29217;52.586;13.442;2022-07-26T05:28:21;18.80;99.90
43627;DHT22;29217;52.586;13.442;2022-07-26T05:30:47;18.80;99.90
43627;DHT22;29217;52.586;13.442;2022-07-26T05:33:13;18.80;99.90
43627;DHT22;29217;52.586;13.442;2022-07-26T05:35:38;18.90;99.90
43627;DHT22;29217;52.586;13.442;2022-07-26T05:38:04;18.90;99.90
43627;DHT22;29217;52.586;13.442;2022-07-26T05:40:29;18.90;99.90
43627;DHT22;29217;52.586;13.442;2022-07-26T05:42:55;19.00;99.90
43627;DHT22;29217;52.586;13.442;2022-07-26T05:45:21;19.00;99.90
43627;DHT22;29217;52.586;13.442;2022-07-26T05:47:50;18.90;99.90
43627;DHT22;29217;52.586;13.442;2022-07-26T05:50:16;19.00;99.90
43627;DHT22;29217;52.586;13.442;2022-07-26T05:52:42;19.10;99.90
43627;DHT22;29217;52.586;13.442;2022-07-26T05:55:08;19.10;99.90
43627;DHT22;29217;52.586;13.442;2022-07-26T05:57:33;19.20;99.90
43627;DHT22;29217;52.586;13.442;2022-07-26T05:59:59;19.20;99.90
43627;DHT22;29217;52.586;13.442;2022-07-26T06:02:25;19.30;99.90
43627;DHT22;29217;52.586;13.442;2022-07-26T06:04:50;19.30;99.90
43627;DHT22;29217;52.586;13.442;2022-07-26T06:07:16;19.40;99.90
43627;DHT22;29217;52.586;13.442;2022-07-26T06:09:41;19.50;99.90
43627;DHT22;29217;52.586;13.442;2022-07-26T06:12:07;19.60;99.90
43627;DHT22;29217;52.586;13.442;2022-07-26T06:14:33;19.70;99.90
43627;DHT22;29217;52.586;13.442;2022-07-26T06:16:58;19.80;99.90
43627;DHT22;29217;52.586;13.442;2022-07-26T06:19:24;19.90;99.90
43627;DHT22;29217;52.586;13.442;2022-07-26T06:21:49;20.00;99.90
43627;DHT22;29217;52.586;13.442;2022-07-26T06:24:15;20.10;99.90
43627;DHT22;29217;52.586;13.442;2022-07-26T06:26:41;20.10;99.90
43627;DHT22;29217;52.586;13.442;2022-07-26T06:29:06;20.20;99.90
43627;DHT22;29217;52.586;13.442;2022-07-26T06:31:32;20.10;99.90
43627;DHT22;29217;52.586;13.442;2022-07-26T06:33:58;20.10;99.90
43627;DHT22;29217;52.586;13.442;2022-07-26T06:36:23;20.20;99.90
43627;DHT22;29217;52.586;13.442;2022-07-26T06:38:49;20.30;99.90
43627;DHT22;29217;52.586;13.442;2022-07-26T06:41:14;20.20;99.90
43627;DHT22;29217;52.586;13.442;2022-07-26T06:43:40;20.30;99.90
43627;DHT22;29217;52.586;13.442;2022-07-26T06:46:05;20.30;99.90
43627;DHT22;29217;52.586;13.442;2022-07-26T06:48:31;20.40;99.90
43627;DHT22;29217;52.586;13.442;2022-07-26T06:50:56;20.30;99.90
43627;DHT22;29217;52.586;13.442;2022-07-26T06:53:22;20.40;99.90
43627;DHT22;29217;52.586;13.442;2022-07-26T06:55:47;20.30;99.90
43627;DHT22;29217;52.586;13.442;2022-07-26T06:58:13;20.40;99.90
43627;DHT22;29217;52.586;13.442;2022-07-26T07:00:38;20.40;99.90
43627;DHT22;29217;52.586;13.442;2022-07-26T07:03:04;20.40;99.90
43627;DHT22;29217;52.586;13.442;2022-07-26T07:05:29;20.50;99.90
43627;DHT22;29217;52.586;13.442;2022-07-26T07:07:55;20.70;99.90
43627;DHT22;29217;52.586;13.442;2022-07-26T07:10:21;20.70;99.90
43627;DHT22;29217;52.586;13.442;2022-07-26T07:12:46;20.70;99.90
43627;DHT22;29217;52.586;13.442;2022-07-26T07:15:12;20.60;99.90
43627;DHT22;29217;52.586;13.442;2022-07-26T07:17:37;20.70;99.90
43627;DHT22;29217;52.586;13.442;2022-07-26T07:20:03;20.80;99.90
43627;DHT22;29217;52.586;13.442;2022-07-26T07:22:30;20.90;99.90
43627;DHT22;29217;52.586;13.442;2022-07-26T07:24:56;20.80;99.90
43627;DHT22;29217;52.586;13.442;2022-07-26T07:27:22;20.80;99.90
43627;DHT22;29217;52.586;13.442;2022-07-26T07:29:48;20.80;99.90
43627;DHT22;29217;52.586;13.442;2022-07-26T07:32:14;20.90;99.90
43627;DHT22;29217;52.586;13.442;2022-07-26T07:34:39;21.00;99.90
43627;DHT22;29217;52.586;13.442;2022-07-26T07:37:05;21.10;99.90
43627;DHT22;29217;52.586;13.442;2022-07-26T07:39:30;21.20;99.90
43627;DHT22;29217;52.586;13.442;2022-07-26T07:41:56;21.30;99.90
43627;DHT22;29217;52.586;13.442;2022-07-26T07:44:22;21.30;99.90
43627;DHT22;29217;52.586;13.442;2022-07-26T07:46:47;21.30;99.90
43627;DHT22;29217;52.586;13.442;2022-07-26T07:49:13;21.20;99.90
43627;DHT22;29217;52.586;13.442;2022-07-26T07:51:40;21.30;99.90
43627;DHT22;29217;52.586;13.442;2022-07-26T07:54:06;21.30;99.90
43627;DHT22;29217;52.586;13.442;2022-07-26T07:56:32;21.40;99.90
43627;DHT22;29217;52.586;13.442;2022-07-26T07:58:57;21.50;99.90
43627;DHT22;29217;52.586;13.442;2022-07-26T08:01:23;21.70;99.90
43627;DHT22;29217;52.586;13.442;2022-07-26T08:03:48;22.00;99.90
43627;DHT22;29217;52.586;13.442;2022-07-26T08:06:14;22.10;99.90
43627;DHT22;29217;52.586;13.442;2022-07-26T08:08:40;22.00;99.90
43627;DHT22;29217;52.586;13.442;2022-07-26T08:11:05;21.90;99.90
43627;DHT22;29217;52.586;13.442;2022-07-26T08:13:31;21.70;99.90
43627;DHT22;29217;52.586;13.442;2022-07-26T08:15:57;21.70;99.90
43627;DHT22;29217;52.586;13.442;2022-07-26T08:18:23;21.70;99.90
43627;DHT22;29217;52.586;13.442;2022-07-26T08:20:50;21.60;99.90
43627;DHT22;29217;52.586;13.442;2022-07-26T08:23:16;21.60;99.90
43627;DHT22;29217;52.586;13.442;2022-07-26T08:25:42;21.60;99.90
43627;DHT22;29217;52.586;13.442;2022-07-26T08:28:07;21.50;99.90
43627;DHT22;29217;52.586;13.442;2022-07-26T08:30:33;21.30;99.90
43627;DHT22;29217;52.586;13.442;2022-07-26T08:32:59;21.30;99.90
43627;DHT22;29217;52.586;13.442;2022-07-26T08:35:24;21.20;99.90
43627;DHT22;29217;52.586;13.442;2022-07-26T08:37:50;21.10;99.90
43627;DHT22;29217;52.586;13.442;2022-07-26T08:40:16;21.10;99.90
43627;DHT22;29217;52.586;13.442;2022-07-26T08:42:52;21.30;99.90
43627;DHT22;29217;52.586;13.442;2022-07-26T08:45:26;21.60;99.90
43627;DHT22;29217;52.586;13.442;2022-07-26T08:47:52;21.80;99.90
43627;DHT22;29217;52.586;13.442;2022-07-26T08:50:19;22.10;99.90
43627;DHT22;29217;52.586;13.442;2022-07-26T08:52:45;22.30;99.90
43627;DHT22;29217;52.586;13.442;2022-07-26T08:55:15;22.50;99.90
43627;DHT22;29217;52.586;13.442;2022-07-26T08:57:41;22.70;99.90
43627;DHT22;29217;52.586;13.442;2022-07-26T09:00:20;22.70;99.90
43627;DHT22;29217;52.586;13.442;2022-07-26T09:02:46;22.60;99.90
43627;DHT22;29217;52.586;13.442;2022-07-26T09:05:12;22.70;99.90
43627;DHT22;29217;52.586;13.442;2022-07-26T09:07:38;22.70;99.90
43627;DHT22;29217;52.586;13.442;2022-07-26T09:10:05;22.80;99.90
43627;DHT22;29217;52.586;13.442;2022-07-26T09:12:32;22.80;99.90
43627;DHT22;29217;52.586;13.442;2022-07-26T09:14:59;22.90;99.90
43627;DHT22;29217;52.586;13.442;2022-07-26T09:20:06;22.80;99.90
43627;DHT22;29217;52.586;13.442;2022-07-26T09:22:33;22.90;99.90
43627;DHT22;29217;52.586;13.442;2022-07-26T09:24:59;22.90;99.90
43627;DHT22;29217;52.586;13.442;2022-07-26T09:27:33;22.80;99.90
43627;DHT22;29217;52.586;13.442;2022-07-26T09:30:05;22.60;99.90
43627;DHT22;29217;52.586;13.442;2022-07-26T09:32:31;22.60;99.90
43627;DHT22;29217;52.586;13.442;2022-07-26T09:35:11;22.40;99.90
43627;DHT22;29217;52.586;13.442;2022-07-26T09:37:39;22.30;99.90
43627;DHT22;29217;52.586;13.442;2022-07-26T09:40:08;22.20;99.90
43627;DHT22;29217;52.586;13.442;2022-07-26T09:42:34;22.20;99.90
43627;DHT22;29217;52.586;13.442;2022-07-26T09:45:00;22.30;99.90
43627;DHT22;29217;52.586;13.442;2022-07-26T09:47:37;22.50;99.90
43627;DHT22;29217;52.586;13.442;2022-07-26T09:50:14;22.80;99.90
43627;DHT22;29217;52.586;13.442;2022-07-26T09:52:55;23.00;99.90
43627;DHT22;29217;52.586;13.442;2022-07-26T09:55:20;23.20;99.90
43627;DHT22;29217;52.586;13.442;2022-07-26T09:57:46;23.30;99.90
43627;DHT22;29217;52.586;13.442;2022-07-26T10:00:12;23.30;99.90
43627;DHT22;29217;52.586;13.442;2022-07-26T10:02:38;23.10;99.90
43627;DHT22;29217;52.586;13.442;2022-07-26T10:05:04;23.00;99.90
43627;DHT22;29217;52.586;13.442;2022-07-26T10:07:30;23.00;99.90
43627;DHT22;29217;52.586;13.442;2022-07-26T10:10:01;23.00;99.90
43627;DHT22;29217;52.586;13.442;2022-07-26T10:12:30;23.00;99.90
43627;DHT22;29217;52.586;13.442;2022-07-26T10:14:56;23.00;99.90
43627;DHT22;29217;52.586;13.442;2022-07-26T10:19:55;23.70;99.90
43627;DHT22;29217;52.586;13.442;2022-07-26T10:22:22;23.90;99.90
43627;DHT22;29217;52.586;13.442;2022-07-26T10:24:49;24.10;99.90
43627;DHT22;29217;52.586;13.442;2022-07-26T10:27:37;24.00;99.90
43627;DHT22;29217;52.586;13.442;2022-07-26T10:32:57;23.60;99.90
43627;DHT22;29217;52.586;13.442;2022-07-26T10:35:37;23.40;99.90
43627;DHT22;29217;52.586;13.442;2022-07-26T10:38:13;23.20;99.90
43627;DHT22;29217;52.586;13.442;2022-07-26T10:41:02;23.20;99.90
43627;DHT22;29217;52.586;13.442;2022-07-26T10:43:28;23.20;99.90
43627;DHT22;29217;52.586;13.442;2022-07-26T10:51:32;23.30;99.90
43627;DHT22;29217;52.586;13.442;2022-07-26T10:54:02;23.60;99.90
43627;DHT22;29217;52.586;13.442;2022-07-26T10:56:29;23.80;99.90
43627;DHT22;29217;52.586;13.442;2022-07-26T10:58:55;24.10;99.90
43627;DHT22;29217;52.586;13.442;2022-07-26T11:01:21;24.30;99.90
43627;DHT22;29217;52.586;13.442;2022-07-26T11:03:46;24.40;99.90
43627;DHT22;29217;52.586;13.442;2022-07-26T11:06:18;24.70;99.90
43627;DHT22;29217;52.586;13.442;2022-07-26T11:08:45;25.20;99.90
43627;DHT22;29217;52.586;13.442;2022-07-26T11:11:12;25.40;99.90
43627;DHT22;29217;52.586;13.442;2022-07-26T11:13:38;25.70;99.90
43627;DHT22;29217;52.586;13.442;2022-07-26T11:16:07;25.50;99.90
43627;DHT22;29217;52.586;13.442;2022-07-26T11:18:36;25.30;99.90
43627;DHT22;29217;52.586;13.442;2022-07-26T11:21:28;25.30;99.90
43627;DHT22;29217;52.586;13.442;2022-07-26T11:24:01;25.30;99.90
43627;DHT22;29217;52.586;13.442;2022-07-26T11:26:27;25.60;99.90
43627;DHT22;29217;52.586;13.442;2022-07-26T11:28:58;25.60;99.90
43627;DHT22;29217;52.586;13.442;2022-07-26T11:33:58;25.00;99.90
43627;DHT22;29217;52.586;13.442;2022-07-26T11:36:42;24.80;99.90
43627;DHT22;29217;52.586;13.442;2022-07-26T11:39:09;24.50;99.90
43627;DHT22;29217;52.586;13.442;2022-07-26T11:41:38;24.20;99.90
43627;DHT22;29217;52.586;13.442;2022-07-26T11:44:05;24.00;99.90
43627;DHT22;29217;52.586;13.442;2022-07-26T11:46:33;23.80;99.90
43627;DHT22;29217;52.586;13.442;2022-07-26T11:48:59;23.60;99.90
43627;DHT22;29217;52.586;13.442;2022-07-26T11:51:25;23.60;99.90
43627;DHT22;29217;52.586;13.442;2022-07-26T11:53:51;23.60;99.90
43627;DHT22;29217;52.586;13.442;2022-07-26T11:56:24;23.50;99.90
43627;DHT22;29217;52.586;13.442;2022-07-26T11:58:53;23.50;99.90
43627;DHT22;29217;52.586;13.442;2022-07-26T12:01:20;23.60;99.90
43627;DHT22;29217;52.586;13.442;2022-07-26T12:03:49;23.70;99.90
43627;DHT22;29217;52.586;13.442;2022-07-26T12:06:18;23.80;99.90
43627;DHT22;29217;52.586;13.442;2022-07-26T12:08:47;24.00;99.90
43627;DHT22;29217;52.586;13.442;2022-07-26T12:11:14;24.40;99.90
43627;DHT22;29217;52.586;13.442;2022-07-26T12:14:06;24.60;99.90
43627;DHT22;29217;52.586;13.442;2022-07-26T12:16:39;24.50;99.90
43627;DHT22;29217;52.586;13.442;2022-07-26T12:19:08;24.20;99.90
43627;DHT22;29217;52.586;13.442;2022-07-26T12:21:57;23.90;99.90
43627;DHT22;29217;52.586;13.442;2022-07-26T12:24:55;23.70;99.90
43627;DHT22;29217;52.586;13.442;2022-07-26T12:27:26;23.30;99.90
43627;DHT22;29217;52.586;13.442;2022-07-26T12:29:54;23.10;99.90
43627;DHT22;29217;52.586;13.442;2022-07-26T12:32:31;22.80;99.90
43627;DHT22;29217;52.586;13.442;2022-07-26T12:37:26;22.50;99.90
43627;DHT22;29217;52.586;13.442;2022-07-26T12:40:27;22.40;99.90
43627;DHT22;29217;52.586;13.442;2022-07-26T12:42:58;22.20;99.90
43627;DHT22;29217;52.586;13.442;2022-07-26T12:45:26;22.00;99.90
43627;DHT22;29217;52.586;13.442;2022-07-26T12:47:53;21.70;99.90
43627;DHT22;29217;52.586;13.442;2022-07-26T12:50:22;21.10;99.90
43627;DHT22;29217;52.586;13.442;2022-07-26T12:52:48;20.90;99.90
43627;DHT22;29217;52.586;13.442;2022-07-26T12:55:16;20.60;99.90
43627;DHT22;29217;52.586;13.442;2022-07-26T12:57:44;20.40;99.90
43627;DHT22;29217;52.586;13.442;2022-07-26T13:00:11;20.10;99.90
43627;DHT22;29217;52.586;13.442;2022-07-26T13:02:38;20.00;99.90
43627;DHT22;29217;52.586;13.442;2022-07-26T13:05:04;19.90;99.90
43627;DHT22;29217;52.586;13.442;2022-07-26T13:07:30;19.80;99.90
43627;DHT22;29217;52.586;13.442;2022-07-26T13:09:56;19.70;99.90
43627;DHT22;29217;52.586;13.442;2022-07-26T13:12:22;19.60;99.90
43627;DHT22;29217;52.586;13.442;2022-07-26T13:14:47;19.60;99.90
43627;DHT22;29217;52.586;13.442;2022-07-26T13:17:13;19.60;99.90
43627;DHT22;29217;52.586;13.442;2022-07-26T13:19:39;19.50;99.90
43627;DHT22;29217;52.586;13.442;2022-07-26T13:22:05;19.50;99.90
43627;DHT22;29217;52.586;13.442;2022-07-26T13:24:32;19.50;99.90
43627;DHT22;29217;52.586;13.442;2022-07-26T13:26:58;19.50;99.90
43627;DHT22;29217;52.586;13.442;2022-07-26T13:29:24;19.60;99.90
43627;DHT22;29217;52.586;13.442;2022-07-26T13:31:50;19.60;99.90
43627;DHT22;29217;52.586;13.442;2022-07-26T13:34:16;19.70;99.90
43627;DHT22;29217;52.586;13.442;2022-07-26T13:36:42;19.80;99.90
43627;DHT22;29217;52.586;13.442;2022-07-26T13:39:08;20.00;99.90
43627;DHT22;29217;52.586;13.442;2022-07-26T13:41:33;20.10;99.90
43627;DHT22;29217;52.586;13.442;2022-07-26T13:43:59;20.10;99.90
43627;DHT22;29217;52.586;13.442;2022-07-26T13:46:25;20.10;99.90
43627;DHT22;29217;52.586;13.442;2022-07-26T13:48:58;20.20;99.90
43627;DHT22;29217;52.586;13.442;2022-07-26T13:51:25;20.20;99.90
43627;DHT22;29217;52.586;13.442;2022-07-26T13:54:11;20.30;99.90
43627;DHT22;29217;52.586;13.442;2022-07-26T13:56:37;20.20;99.90
43627;DHT22;29217;52.586;13.442;2022-07-26T13:59:03;20.20;99.90
43627;DHT22;29217;52.586;13.442;2022-07-26T14:01:30;20.30;99.90
43627;DHT22;29217;52.586;13.442;2022-07-26T14:03:55;20.40;99.90
43627;DHT22;29217;52.586;13.442;2022-07-26T14:06:21;20.50;99.90
43627;DHT22;29217;52.586;13.442;2022-07-26T14:08:47;20.40;99.90
43627;DHT22;29217;52.586;13.442;2022-07-26T14:11:12;20.50;99.90
43627;DHT22;29217;52.586;13.442;2022-07-26T14:13:38;20.70;99.90
43627;DHT22;29217;52.586;13.442;2022-07-26T14:16:04;20.80;99.90
43627;DHT22;29217;52.586;13.442;2022-07-26T14:18:30;21.00;99.90
43627;DHT22;29217;52.586;13.442;2022-07-26T14:20:55;21.10;99.90
43627;DHT22;29217;52.586;13.442;2022-07-26T14:23:21;21.20;99.90
43627;DHT22;29217;52.586;13.442;2022-07-26T14:25:46;21.30;99.90
43627;DHT22;29217;52.586;13.442;2022-07-26T14:28:12;21.30;99.90
43627;DHT22;29217;52.586;13.442;2022-07-26T14:30:37;21.40;99.90
43627;DHT22;29217;52.586;13.442;2022-07-26T14:33:03;21.70;99.90
43627;DHT22;29217;52.586;13.442;2022-07-26T14:35:30;21.80;99.90
43627;DHT22;29217;52.586;13.442;2022-07-26T14:37:56;21.80;99.90
43627;DHT22;29217;52.586;13.442;2022-07-26T14:40:22;21.70;99.90
43627;DHT22;29217;52.586;13.442;2022-07-26T14:42:47;21.70;99.90
43627;DHT22;29217;52.586;13.442;2022-07-26T14:45:14;21.60;99.90
43627;DHT22;29217;52.586;13.442;2022-07-26T14:47:39;21.50;99.90
43627;DHT22;29217;52.586;13.442;2022-07-26T14:50:06;21.40;99.90
43627;DHT22;29217;52.586;13.442;2022-07-26T14:52:32;21.40;99.90
43627;DHT22;29217;52.586;13.442;2022-07-26T14:54:58;21.50;99.90
43627;DHT22;29217;52.586;13.442;2022-07-26T14:57:24;21.60;99.90
43627;DHT22;29217;52.586;13.442;2022-07-26T14:59:50;21.70;99.90
43627;DHT22;29217;52.586;13.442;2022-07-26T15:02:16;21.70;99.90
43627;DHT22;29217;52.586;13.442;2022-07-26T15:04:41;21.90;99.90
43627;DHT22;29217;52.586;13.442;2022-07-26T15:07:07;22.10;99.90
43627;DHT22;29217;52.586;13.442;2022-07-26T15:09:33;22.30;99.90
43627;DHT22;29217;52.586;13.442;2022-07-26T15:11:59;22.30;99.90
43627;DHT22;29217;52.586;13.442;2022-07-26T15:14:24;22.20;99.90
43627;DHT22;29217;52.586;13.442;2022-07-26T15:16:50;22.00;99.90
43627;DHT22;29217;52.586;13.442;2022-07-26T15:19:15;22.20;99.90
43627;DHT22;29217;52.586;13.442;2022-07-26T15:21:41;22.20;99.90
43627;DHT22;29217;52.586;13.442;2022-07-26T15:24:07;22.30;99.90
43627;DHT22;29217;52.586;13.442;2022-07-26T15:26:34;22.40;99.90
43627;DHT22;29217;52.586;13.442;2022-07-26T15:29:00;22.30;99.90
43627;DHT22;29217;52.586;13.442;2022-07-26T15:31:25;22.20;99.90
43627;DHT22;29217;52.586;13.442;2022-07-26T15:33:51;22.20;99.90